메인 페이지
METAR-TAF:

METAR-TAF

공항 :

파포스, 키프로스

위도: 34-43N, 경도: 032-29E, 고도: 11m

현재 날씨관측

예보는 37분 전, 14:30시(UTC)에 발표되었습니다.
서북서8kt
온도 26°C
습도 58%
기압 1017 hPa
시정 10km 이상
고도 2500ft 상공 구름 조금

METAR: LCPH 221430Z 30008KT 9999 FEW025 26/17 Q1017

시각: 18:07 (15:07 UTC)

예보

예보는 3 시간 37분 전, 11:30시(UTC)에 발표되었습니다.
예보 대상 시간: 22일 12시부터 23일 12시까지 (UTC)
북서15kt
시정 10km 이상
고도 2500ft 상공 구름 조금
전환 중
22일 17시부터 22일 20시까지 (UTC)
북북동6kt
전환 중
23일 09시부터 23일 12시까지 (UTC)
서남서10kt

TAF: LCPH 221130Z 2212/2312 32015KT 9999 FEW025 BECMG 2217/2220 03006KT BECMG 2309/2312 24010KT

4,000개 이상의 공항 관측 자료 및 예보 (METAR 및 TAF 보고).

지도상에서 검색 가능한 기상관측소가 노란 점과 빨간 점으로 표시되어 있습니다.

기상관측소 명을 보려면 표시 위로 마우스를 이동하세요.

날씨 관측과 예보를 보려면 클릭하세요.

지도 변경 : 확대하려면 엑스 표시가 있는 녹색 버튼, 축소하려면 빼기 표시가 있는 녹색 버튼, 다음 페이지의 지도를 보려면 녹색 화살표를 클릭하세요.


METAR-TAF: